Time;durP1;ratioP1;P1;durP2;ratioP2;P2;SDS_P1;SDS_P2;PMS_P1;PMS_P2;Temp;Humidity;BMP_temperature;BMP_pressure;BME280_temperature;BME280_humidity;BME280_pressure;Samples;Min_cycle;Max_cycle;Signal;HPM_P1;HPM_P2
2023/05/02 00:01:07;;;;;;;;;;;;;;;8.20;68.17;98394.57;103695;1305;122875;-86
2023/05/02 00:11:53;;;;;;;;;;;;;;;8.10;68.67;98390.55;103838;1305;545028;-87
2023/05/02 00:15:22;;;;;;;;;;;;;;;8.05;68.53;98380.89;105212;1308;24267;-86
2023/05/02 00:33:11;;;;;;;;;;;;;;;8.03;69.13;98383.55;104601;1312;22612;-85
2023/05/02 00:47:32;;;;;;;;;;;;;;;7.98;69.86;98391.42;104180;1298;545782;-86
2023/05/02 00:50:59;;;;;;;;;;;;;;;7.92;69.87;98389.76;106378;1295;22520;-86
2023/05/02 00:54:12;;;;;;;;;;;;;;;;;;;;;
2023/05/02 01:01:21;;;;;;;;;;;;;;;7.92;69.30;98389.59;100451;1314;5489071;-86
2023/05/02 01:04:47;;;;;;;;;;;;;;;7.92;70.11;98387.10;103774;1322;22625;-86
2023/05/02 01:15:40;;;;;;;;;;;;;;;7.82;70.49;98393.44;103777;1322;544687;-84
2023/05/02 01:36:52;;;;;;;;;;;;;;;7.35;72.55;98395.91;106153;1297;123936;-85
2023/05/02 01:40:21;;;;;;;;;;;;;;;7.36;73.60;98393.70;105239;1306;22567;-86
2023/05/02 01:43:48;;;;;;;;;;;;;;;7.31;73.84;98392.43;104784;1302;123397;-86
2023/05/02 01:47:14;;;;;;;;;;;;;;;7.26;73.65;98396.61;100622;1314;5450185;-85
2023/05/02 01:50:41;;;;;;;;;;;;;;;7.26;73.65;98398.02;104349;1316;24257;-85
2023/05/02 02:05:01;;;;;;;;;;;;;;;7.37;72.25;98396.45;103676;1322;547749;-86
2023/05/02 02:11:57;;;;;;;;;;;;;;;7.42;71.94;98396.85;104505;1314;22668;-86
2023/05/02 02:23:03;;;;;;;;;;;;;;;7.11;74.04;98401.85;103725;1315;547352;-86
2023/05/02 02:29:56;;;;;;;;;;;;;;;6.99;74.21;98404.42;104209;1316;22595;-86
2023/05/02 02:33:23;;;;;;;;;;;;;;;7.00;73.84;98406.49;104274;1315;22571;-86
2023/05/02 02:36:49;;;;;;;;;;;;;;;7.01;73.91;98407.19;99632;1325;5445785;-86
2023/05/02 02:44:00;;;;;;;;;;;;;;;7.07;73.74;98408.17;103531;1308;124269;-87
2023/05/02 02:55:15;;;;;;;;;;;;;;;6.91;74.64;98409.50;103626;1322;547048;-86
2023/05/02 02:58:36;;;;;;;;;;;;;;;6.80;74.66;98407.51;105874;1300;22548;-86
2023/05/02 03:09:32;;;;;;;;;;;;;;;6.65;76.01;98425.00;105664;1303;24238;-86
2023/05/02 03:12:56;;;;;;;;;;;;;;;6.51;76.29;98429.72;105689;1296;123768;-85
2023/05/02 03:19:34;;;;;;;;;;;;;;;;;;;;;
2023/05/02 03:30:42;;;;;;;;;;;;;;;6.51;76.68;98433.59;103780;1314;547330;-86
2023/05/02 03:45:04;;;;;;;;;;;;;;;6.68;76.12;98431.34;103421;1308;547070;-87
2023/05/02 03:51:57;;;;;;;;;;;;;;;6.81;76.25;98433.57;104359;1315;22579;-86
2023/05/02 03:55:27;;;;;;;;;;;;;;;6.89;75.80;98434.46;104006;1310;123769;-85
2023/05/02 04:02:17;;;;;;;;;;;;;;;7.05;75.62;98430.48;102418;1335;123615;-88
2023/05/02 04:09:45;;;;;;;;;;;;;;;7.26;75.57;98434.73;103570;1306;544255;-86
2023/05/02 04:13:13;;;;;;;;;;;;;;;7.35;75.45;98431.43;105110;1306;124161;-86
2023/05/02 04:16:41;;;;;;;;;;;;;;;7.45;75.47;98431.57;105021;1309;22537;-86
2023/05/02 04:34:29;;;;;;;;;;;;;;;7.73;75.03;98431.95;103591;1322;547755;-85
2023/05/02 04:37:56;;;;;;;;;;;;;;;7.71;75.12;98432.02;105059;1306;123447;-85
2023/05/02 04:41:25;;;;;;;;;;;;;;;7.77;75.19;98433.82;106083;1298;22709;-85
2023/05/02 04:55:48;;;;;;;;;;;;;;;8.11;74.72;98432.73;103524;1301;544739;-86
2023/05/02 05:02:43;;;;;;;;;;;;;;;8.39;73.22;98437.08;105268;1302;123314;-85
2023/05/02 05:13:37;;;;;;;;;;;;;;;8.86;73.01;98427.19;103562;1321;547477;-86
2023/05/02 05:21:01;;;;;;;;;;;;;;;9.20;73.02;98425.98;103803;1298;544611;-85
2023/05/02 05:24:20;;;;;;;;;;;;;;;9.34;75.22;98428.64;105413;1304;24070;-86
2023/05/02 05:31:16;;;;;;;;;;;;;;;9.64;71.76;98434.01;105495;1283;123552;-86
2023/05/02 05:34:50;;;;;;;;;;;;;;;9.80;69.34;98433.73;100860;1310;5469624;-86
2023/05/02 05:37:42;;;;;;;;;;;;;;;;;;;;;
2023/05/02 05:41:07;;;;;;;;;;;;;;;;;;;;;
2023/05/02 05:44:59;;;;;;;;;;;;;;;10.31;67.99;98437.56;103561;1322;123988;-86
2023/05/02 05:48:25;;;;;;;;;;;;;;;10.49;67.73;98430.63;103634;1322;22583;-87
2023/05/02 05:55:48;;;;;;;;;;;;;;;10.90;68.06;98434.27;103509;1322;545045;-87
2023/05/02 05:59:15;;;;;;;;;;;;;;;11.07;67.24;98430.61;106116;1289;23937;-86
2023/05/02 06:02:41;;;;;;;;;;;;;;;11.24;66.55;98432.05;105600;1299;123610;-86
2023/05/02 06:09:34;;;;;;;;;;;;;;;11.62;66.17;98432.75;100496;1313;5459702;-87
2023/05/02 06:23:41;;;;;;;;;;;;;;;;;;;;;
2023/05/02 06:26:51;;;;;;;;;;;;;;;;;;;;;
2023/05/02 06:30:06;;;;;;;;;;;;;;;;;;;;;
2023/05/02 06:33:52;;;;;;;;;;;;;;;12.87;61.47;98444.19;101267;1308;5464855;-86
2023/05/02 06:37:05;;;;;;;;;;;;;;;13.08;60.76;98443.59;105305;1307;123601;-88
2023/05/02 06:40:56;;;;;;;;;;;;;;;13.28;59.90;98442.60;104913;1292;23087;-87
2023/05/02 06:44:22;;;;;;;;;;;;;;;13.49;58.89;98444.16;104229;1317;123244;-86
2023/05/02 06:47:17;;;;;;;;;;;;;;;;;;;;;
2023/05/02 06:50:54;;;;;;;;;;;;;;;;;;;;;
2023/05/02 06:54:33;;;;;;;;;;;;;;;14.11;57.26;98454.06;103443;1322;25504;-87
2023/05/02 06:57:31;;;;;;;;;;;;;;;;;;;;;
2023/05/02 07:00:57;;;;;;;;;;;;;;;;;;;;;
2023/05/02 07:04:06;;;;;;;;;;;;;;;;;;;;;
2023/05/02 07:07:34;;;;;;;;;;;;;;;14.92;54.15;98448.83;104272;1318;126109;-88
2023/05/02 07:10:20;;;;;;;;;;;;;;;15.13;53.35;98451.14;104425;1299;22602;-87
2023/05/02 07:13:39;;;;;;;;;;;;;;;;;;;;;
2023/05/02 07:16:51;;;;;;;;;;;;;;;;;;;;;
2023/05/02 07:20:42;;;;;;;;;;;;;;;15.75;53.00;98448.52;104293;1302;123535;-86
2023/05/02 07:23:54;;;;;;;;;;;;;;;;;;;;;
2023/05/02 07:27:27;;;;;;;;;;;;;;;16.24;52.52;98444.94;104541;1311;124076;-87
2023/05/02 07:30:46;;;;;;;;;;;;;;;16.47;51.54;98450.03;104839;1311;22822;-87
2023/05/02 07:33:26;;;;;;;;;;;;;;;;;;;;;
2023/05/02 07:37:10;;;;;;;;;;;;;;;16.84;51.33;98449.24;104170;1317;24370;-89
2023/05/02 07:40:35;;;;;;;;;;;;;;;17.03;49.86;98456.83;104420;1293;22558;-88
2023/05/02 07:43:26;;;;;;;;;;;;;;;;;;;;;
2023/05/02 07:47:19;;;;;;;;;;;;;;;17.39;49.13;98448.70;104303;1313;24276;-87
2023/05/02 07:50:13;;;;;;;;;;;;;;;;;;;;;
2023/05/02 07:53:57;;;;;;;;;;;;;;;17.72;48.22;98448.59;104819;1302;25256;-88
2023/05/02 07:56:41;;;;;;;;;;;;;;;;;;;;;
2023/05/02 08:00:01;;;;;;;;;;;;;;;;;;;;;
2023/05/02 08:03:38;;;;;;;;;;;;;;;18.21;47.01;98456.56;104992;1292;123706;-88
2023/05/02 08:06:37;;;;;;;;;;;;;;;;;;;;;
2023/05/02 08:10:12;;;;;;;;;;;;;;;18.52;46.23;98454.05;105467;1299;24393;-88
2023/05/02 08:13:22;;;;;;;;;;;;;;;18.65;46.05;98458.30;105949;1280;23240;-88
2023/05/02 08:16:10;;;;;;;;;;;;;;;;;;;;;
2023/05/02 08:19:26;;;;;;;;;;;;;;;;;;;;;
2023/05/02 08:23:03;;;;;;;;;;;;;;;19.18;45.58;98460.04;106596;1288;24408;-87
2023/05/02 08:26:03;;;;;;;;;;;;;;;;;;;;;
2023/05/02 08:29:57;;;;;;;;;;;;;;;19.59;45.14;98460.48;106389;1282;22596;-88
2023/05/02 08:32:36;;;;;;;;;;;;;;;;;;;;;
2023/05/02 08:35:51;;;;;;;;;;;;;;;;;;;;;
2023/05/02 08:39:10;;;;;;;;;;;;;;;;;;;;;
2023/05/02 08:42:23;;;;;;;;;;;;;;;;;;;;;
2023/05/02 08:46:11;;;;;;;;;;;;;;;20.15;43.61;98457.06;107236;1287;123246;-89
2023/05/02 08:48:57;;;;;;;;;;;;;;;;;;;;;
2023/05/02 08:52:03;;;;;;;;;;;;;;;;;;;;;
2023/05/02 08:55:41;;;;;;;;;;;;;;;20.44;43.50;98457.27;106307;1293;24570;-89
2023/05/02 08:58:25;;;;;;;;;;;;;;;;;;;;;
2023/05/02 09:02:17;;;;;;;;;;;;;;;20.47;42.94;98462.84;106329;1289;124234;-88
2023/05/02 09:05:44;;;;;;;;;;;;;;;20.47;42.88;98466.13;106371;1287;22520;-88
2023/05/02 09:08:32;;;;;;;;;;;;;;;;;;;;;
2023/05/02 09:12:11;;;;;;;;;;;;;;;20.75;42.40;98459.93;106174;1295;25335;-88
2023/05/02 09:14:58;;;;;;;;;;;;;;;;;;;;;
2023/05/02 09:18:37;;;;;;;;;;;;;;;20.83;41.95;98462.77;106096;1296;23049;-89
2023/05/02 09:21:38;;;;;;;;;;;;;;;;;;;;;
2023/05/02 09:24:59;;;;;;;;;;;;;;;;;;;;;
2023/05/02 09:28:06;;;;;;;;;;;;;;;;;;;;;
2023/05/02 09:31:26;;;;;;;;;;;;;;;;;;;;;
2023/05/02 09:34:40;;;;;;;;;;;;;;;;;;;;;
2023/05/02 09:38:06;;;;;;;;;;;;;;;;;;;;;
2023/05/02 09:41:44;;;;;;;;;;;;;;;;;;;;;
2023/05/02 09:44:52;;;;;;;;;;;;;;;;;;;;;
2023/05/02 09:48:30;;;;;;;;;;;;;;;19.83;43.60;98481.07;104571;1309;24428;-91
2023/05/02 09:51:50;;;;;;;;;;;;;;;19.84;43.72;98478.91;105115;1309;123888;-88
2023/05/02 09:55:14;;;;;;;;;;;;;;;19.96;44.05;98481.02;104858;1301;25607;-88
2023/05/02 09:58:10;;;;;;;;;;;;;;;20.17;43.50;98483.52;105135;1309;22564;-88
2023/05/02 10:01:40;;;;;;;;;;;;;;;;;;;;;
2023/05/02 10:04:59;;;;;;;;;;;;;;;;;;;;;
2023/05/02 10:08:33;;;;;;;;;;;;;;;;;;;;;
2023/05/02 10:12:02;;;;;;;;;;;;;;;21.08;43.08;98475.00;105612;1302;22549;-88
2023/05/02 10:15:00;;;;;;;;;;;;;;;;;;;;;
2023/05/02 10:18:37;;;;;;;;;;;;;;;21.50;41.85;98480.02;106167;1290;22533;-88
2023/05/02 10:22:10;;;;;;;;;;;;;;;21.66;41.94;98472.63;106568;1295;123914;-89
2023/05/02 10:24:48;;;;;;;;;;;;;;;;;;;;;
2023/05/02 10:28:20;;;;;;;;;;;;;;;21.98;41.80;98474.80;106399;1296;123918;-88
2023/05/02 10:31:16;;;;;;;;;;;;;;;;;;;;;
2023/05/02 10:34:41;;;;;;;;;;;;;;;;;;;;;
2023/05/02 10:37:43;;;;;;;;;;;;;;;22.42;40.16;98466.09;105232;1299;123920;-87
2023/05/02 10:41:38;;;;;;;;;;;;;;;22.55;40.51;98472.13;105488;1305;22616;-89
2023/05/02 10:44:40;;;;;;;;;;;;;;;;;;;;;
2023/05/02 10:48:00;;;;;;;;;;;;;;;;;;;;;
2023/05/02 10:51:47;;;;;;;;;;;;;;;22.91;39.72;98470.08;105176;1299;124160;-89
2023/05/02 10:54:49;;;;;;;;;;;;;;;22.91;39.44;98465.23;105512;1299;26570;-88
2023/05/02 10:58:22;;;;;;;;;;;;;;;22.97;39.47;98460.02;105525;1293;124407;-88
2023/05/02 11:01:57;;;;;;;;;;;;;;;;;;;;;
2023/05/02 11:05:10;;;;;;;;;;;;;;;;;;;;;
2023/05/02 11:08:40;;;;;;;;;;;;;;;22.96;37.77;98462.36;105629;1282;123773;-89
2023/05/02 11:12:20;;;;;;;;;;;;;;;;;;;;;
2023/05/02 11:14:49;;;;;;;;;;;;;;;23.26;37.45;98458.52;106184;1293;124846;-90
2023/05/02 11:18:05;;;;;;;;;;;;;;;;;;;;;
2023/05/02 11:21:15;;;;;;;;;;;;;;;;;;;;;
2023/05/02 11:24:33;;;;;;;;;;;;;;;23.63;35.73;98452.38;106889;1289;25442;-88
2023/05/02 11:28:03;;;;;;;;;;;;;;;;;;;;;
2023/05/02 11:31:15;;;;;;;;;;;;;;;23.48;36.47;98450.64;106561;1293;24212;-88
2023/05/02 11:34:22;;;;;;;;;;;;;;;23.39;36.52;98445.88;106377;1293;22625;-86
2023/05/02 11:38:17;;;;;;;;;;;;;;;23.31;36.49;98456.42;106611;1290;22592;-88
2023/05/02 11:41:33;;;;;;;;;;;;;;;23.20;36.07;98457.44;106529;1287;24366;-89
2023/05/02 11:44:45;;;;;;;;;;;;;;;;;;;;;
2023/05/02 11:48:06;;;;;;;;;;;;;;;;;;;;;
2023/05/02 11:51:35;;;;;;;;;;;;;;;;;;;;;
2023/05/02 11:54:56;;;;;;;;;;;;;;;;;;;;;
2023/05/02 11:57:33;;;;;;;;;;;;;;;23.62;35.58;98457.65;104760;1303;124005;-89
2023/05/02 12:00:51;;;;;;;;;;;;;;;;;;;;;
2023/05/02 12:03:52;;;;;;;;;;;;;;;23.23;35.96;98448.45;104473;1307;124144;-88
2023/05/02 12:07:10;;;;;;;;;;;;;;;23.06;36.70;98450.95;104597;1308;22556;-90
2023/05/02 12:10:32;;;;;;;;;;;;;;;;;;;;;
2023/05/02 12:14:10;;;;;;;;;;;;;;;;;;;;;
2023/05/02 12:17:03;;;;;;;;;;;;;;;;;;;;;
2023/05/02 12:20:23;;;;;;;;;;;;;;;;;;;;;
2023/05/02 12:23:54;;;;;;;;;;;;;;;;;;;;;
2023/05/02 12:27:28;;;;;;;;;;;;;;;23.37;36.02;98449.53;104640;1311;123681;-89
2023/05/02 12:30:41;;;;;;;;;;;;;;;23.23;36.43;98449.38;105375;1289;22554;-89
2023/05/02 12:33:34;;;;;;;;;;;;;;;23.05;36.14;98454.36;105066;1305;123720;-88
2023/05/02 12:37:22;;;;;;;;;;;;;;;22.75;36.47;98457.59;105725;1301;22842;-85
2023/05/02 12:40:13;;;;;;;;;;;;;;;;;;;;;
2023/05/02 12:49:58;;;;;;;;;;;;;;;22.09;37.71;98459.91;106490;1276;123793;-89
2023/05/02 12:53:08;;;;;;;;;;;;;;;;;;;;;
2023/05/02 12:57:07;;;;;;;;;;;;;;;21.88;37.83;98466.22;106628;1291;124485;-88
2023/05/02 13:00:32;;;;;;;;;;;;;;;21.85;38.43;98465.55;106822;1272;26595;-89
2023/05/02 13:03:21;;;;;;;;;;;;;;;21.86;39.08;98470.08;106704;1289;124070;-88
2023/05/02 13:06:39;;;;;;;;;;;;;;;;;;;;;
2023/05/02 13:10:18;;;;;;;;;;;;;;;21.73;38.57;98476.74;106523;1287;123577;-88
2023/05/02 13:12:55;;;;;;;;;;;;;;;21.44;41.27;98478.73;106435;1296;23275;-89
2023/05/02 13:16:06;;;;;;;;;;;;;;;;;;;;;
2023/05/02 13:19:35;;;;;;;;;;;;;;;;;;;;;
2023/05/02 13:22:24;;;;;;;;;;;;;;;20.60;43.95;98482.34;106627;1278;24278;-87
2023/05/02 13:25:11;;;;;;;;;;;;;;;20.36;44.38;98484.95;106363;1295;22528;-88
2023/05/02 13:28:26;;;;;;;;;;;;;;;;;;;;;
2023/05/02 13:31:47;;;;;;;;;;;;;;;;;;;;;
2023/05/02 13:35:19;;;;;;;;;;;;;;;;;;;;;
2023/05/02 13:41:54;;;;;;;;;;;;;;;;;;;;;
2023/05/02 13:44:52;;;;;;;;;;;;;;;;;;;;;
2023/05/02 13:48:24;;;;;;;;;;;;;;;19.56;47.47;98549.16;106443;1299;22549;-88
2023/05/02 13:51:25;;;;;;;;;;;;;;;;;;;;;
2023/05/02 13:55:20;;;;;;;;;;;;;;;18.94;54.11;98595.92;105848;1299;25357;-91
2023/05/02 13:57:41;;;;;;;;;;;;;;;18.32;58.32;98608.80;105963;1292;123887;-90
2023/05/02 14:01:03;;;;;;;;;;;;;;;;;;;;;
2023/05/02 14:04:05;;;;;;;;;;;;;;;17.08;64.89;98627.60;105779;1287;123839;-90
2023/05/02 14:10:42;;;;;;;;;;;;;;;;;;;;;
2023/05/02 14:13:59;;;;;;;;;;;;;;;;;;;;;
2023/05/02 14:17:07;;;;;;;;;;;;;;;;;;;;;
2023/05/02 14:23:50;;;;;;;;;;;;;;;;;;;;;
2023/05/02 14:27:28;;;;;;;;;;;;;;;14.15;76.29;98652.42;104064;1323;124798;-90
2023/05/02 14:30:40;;;;;;;;;;;;;;;;;;;;;
2023/05/02 14:33:29;;;;;;;;;;;;;;;;;;;;;
2023/05/02 14:51:39;;;;;;;;;;;;;;;13.69;79.56;98638.06;105340;1308;123895;-90
2023/05/02 14:54:51;;;;;;;;;;;;;;;;;;;;;
2023/05/02 14:58:31;;;;;;;;;;;;;;;13.66;79.97;98610.11;100189;1317;5462408;-89
2023/05/02 15:06:00;;;;;;;;;;;;;;;13.66;80.71;98548.55;104273;1306;544544;-89
2023/05/02 15:16:43;;;;;;;;;;;;;;;;;;;;;
2023/05/02 15:20:24;;;;;;;;;;;;;;;13.57;82.66;98576.98;105402;1304;22655;-87
2023/05/02 15:23:16;;;;;;;;;;;;;;;13.60;82.91;98588.83;104699;1310;22628;-88
2023/05/02 15:27:10;;;;;;;;;;;;;;;13.64;83.27;98598.22;104231;1301;23818;-88
2023/05/02 15:30:37;;;;;;;;;;;;;;;13.66;83.34;98602.56;100161;1318;5499399;-88
2023/05/02 15:36:59;;;;;;;;;;;;;;;;;;;;;
2023/05/02 15:55:22;;;;;;;;;;;;;;;13.58;84.01;98656.95;104120;1309;25323;-88
2023/05/02 16:06:17;;;;;;;;;;;;;;;13.65;85.18;98696.86;103691;1298;545609;-89
2023/05/02 16:13:39;;;;;;;;;;;;;;;13.52;85.93;98698.59;103806;1301;547061;-89
2023/05/02 16:16:59;;;;;;;;;;;;;;;13.44;86.19;98695.61;105682;1301;124556;-88
2023/05/02 16:20:20;;;;;;;;;;;;;;;13.42;86.30;98693.17;105157;1299;25491;-89
2023/05/02 16:27:15;;;;;;;;;;;;;;;13.43;87.09;98701.95;100083;1318;5608124;-88
2023/05/02 16:36:53;;;;;;;;;;;;;;;;;;;;;
2023/05/02 16:44:39;;;;;;;;;;;;;;;13.44;87.40;98737.18;103725;1322;547392;-89
2023/05/02 16:58:21;;;;;;;;;;;;;;;;;;;;;
2023/05/02 17:20:31;;;;;;;;;;;;;;;13.29;88.72;98816.21;103818;1304;545195;-90
2023/05/02 17:23:57;;;;;;;;;;;;;;;13.24;89.08;98816.21;105764;1301;123758;-90
2023/05/02 17:27:11;;;;;;;;;;;;;;;;;;;;;
2023/05/02 17:30:25;;;;;;;;;;;;;;;;;;;;;
2023/05/02 17:37:38;;;;;;;;;;;;;;;12.99;90.27;98831.33;106352;1306;22527;-89
2023/05/02 17:44:08;;;;;;;;;;;;;;;;;;;;;
2023/05/02 17:47:23;;;;;;;;;;;;;;;;;;;;;
2023/05/02 17:51:18;;;;;;;;;;;;;;;12.90;90.13;98856.40;104233;1298;24512;-89
2023/05/02 17:58:30;;;;;;;;;;;;;;;;;;;;;
2023/05/02 18:02:16;;;;;;;;;;;;;;;12.90;91.00;98874.17;106016;1295;22573;-90
2023/05/02 18:09:19;;;;;;;;;;;;;;;12.84;91.44;98883.43;105380;1288;22900;-89
2023/05/02 18:12:32;;;;;;;;;;;;;;;;;;;;;
2023/05/02 18:15:48;;;;;;;;;;;;;;;;;;;;;
2023/05/02 18:19:51;;;;;;;;;;;;;;;;;;;;;
2023/05/02 18:27:03;;;;;;;;;;;;;;;;;;;;;
2023/05/02 18:37:46;;;;;;;;;;;;;;;12.68;92.74;98878.36;105416;1289;22539;-89
2023/05/02 18:55:49;;;;;;;;;;;;;;;12.50;93.86;98865.13;104307;1305;544880;-89
2023/05/02 19:17:05;;;;;;;;;;;;;;;11.92;95.03;98818.13;105094;1310;124078;-88
2023/05/02 19:20:31;;;;;;;;;;;;;;;11.85;94.52;98825.83;104856;1313;22575;-88
2023/05/02 19:23:58;;;;;;;;;;;;;;;11.78;93.97;98830.71;104272;1299;123770;-89
2023/05/02 19:27:23;;;;;;;;;;;;;;;11.71;93.58;98837.73;100095;1326;5486874;-88
2023/05/02 19:41:51;;;;;;;;;;;;;;;11.54;92.43;98862.55;104720;1311;123914;-87
2023/05/02 19:52:41;;;;;;;;;;;;;;;11.58;92.10;98879.05;104151;1300;547068;-87
2023/05/02 19:59:28;;;;;;;;;;;;;;;11.56;92.73;98891.02;105982;1292;123812;-88
2023/05/02 20:06:49;;;;;;;;;;;;;;;11.56;92.82;98901.10;103734;1317;544382;-87
2023/05/02 20:13:45;;;;;;;;;;;;;;;11.53;92.50;98902.95;104873;1303;22533;-87
2023/05/02 20:17:12;;;;;;;;;;;;;;;11.52;92.21;98903.36;104920;1293;124705;-88
2023/05/02 20:31:35;;;;;;;;;;;;;;;11.48;92.14;98915.48;104301;1299;545679;-87
2023/05/02 20:34:40;;;;;;;;;;;;;;;;;;;;;
2023/05/02 20:41:52;;;;;;;;;;;;;;;11.38;92.38;98910.75;105477;1296;123750;-88
2023/05/02 20:48:45;;;;;;;;;;;;;;;11.35;92.05;98919.63;104795;1312;124331;-90
2023/05/02 20:52:12;;;;;;;;;;;;;;;11.33;92.27;98924.98;104810;1295;24271;-86
2023/05/02 21:03:25;;;;;;;;;;;;;;;11.33;92.38;98935.67;104039;1302;558282;-88
2023/05/02 21:06:55;;;;;;;;;;;;;;;11.31;92.77;98945.66;106982;1289;123806;-89
2023/05/02 21:10:26;;;;;;;;;;;;;;;11.28;92.44;98944.63;106412;1293;22591;-88
2023/05/02 21:13:51;;;;;;;;;;;;;;;11.28;92.84;98949.36;106466;1282;24291;-89
2023/05/02 21:20:46;;;;;;;;;;;;;;;11.26;93.05;98952.58;105468;1305;22667;-87
2023/05/02 21:24:12;;;;;;;;;;;;;;;11.24;93.18;98953.39;104299;1299;123810;-88
2023/05/02 21:34:54;;;;;;;;;;;;;;;;;;;;;
2023/05/02 21:38:37;;;;;;;;;;;;;;;11.16;93.69;98972.84;106046;1295;23273;-90
2023/05/02 21:41:51;;;;;;;;;;;;;;;;;;;;;
2023/05/02 21:45:34;;;;;;;;;;;;;;;11.14;93.92;98981.10;104594;1299;22568;-90
2023/05/02 21:49:07;;;;;;;;;;;;;;;11.14;94.15;98980.10;99650;1318;5978108;-90
2023/05/02 21:52:35;;;;;;;;;;;;;;;11.11;94.10;98976.38;103354;1323;23242;-89
2023/05/02 22:25:40;;;;;;;;;;;;;;;10.67;95.81;98989.27;104753;1310;24232;-91
2023/05/02 22:47:42;;;;;;;;;;;;;;;10.77;96.07;99008.91;103942;1304;544611;-91
2023/05/02 22:51:13;;;;;;;;;;;;;;;10.76;96.26;99014.41;106715;1299;22764;-90
2023/05/02 22:54:41;;;;;;;;;;;;;;;10.77;95.96;99019.55;106596;1292;123850;-91
2023/05/02 22:58:09;;;;;;;;;;;;;;;10.77;96.52;99017.95;106621;1274;25368;-90
2023/05/02 23:01:14;;;;;;;;;;;;;;;10.76;96.38;99021.08;102067;1296;5666082;-92
2023/05/02 23:08:58;;;;;;;;;;;;;;;10.79;96.41;99026.61;105284;1292;24325;-92
2023/05/02 23:12:29;;;;;;;;;;;;;;;10.77;96.24;99028.14;104887;1312;123931;-92
2023/05/02 23:15:37;;;;;;;;;;;;;;;10.77;96.49;99024.84;104994;1311;22555;-92
2023/05/02 23:19:06;;;;;;;;;;;;;;;10.76;96.58;99021.02;104495;1311;137564;-92
2023/05/02 23:26:22;;;;;;;;;;;;;;;10.77;96.59;99019.17;103705;1329;22595;-92
2023/05/02 23:37:46;;;;;;;;;;;;;;;10.72;96.46;99019.76;103921;1311;546263;-91
2023/05/02 23:44:30;;;;;;;;;;;;;;;10.71;96.99;99024.08;104851;1315;22579;-91
2023/05/02 23:48:24;;;;;;;;;;;;;;;10.70;96.72;99023.52;104353;1302;123713;-92
2023/05/02 23:51:40;;;;;;;;;;;;;;;;;;;;;
2023/05/02 23:55:10;;;;;;;;;;;;;;;;;;;;;
